Adair Village, OR

1:24 AM PST on January 30, 2015 (GMT -0800)
Sequoia | Change Station
CLOSE
Current Station
Personal Weather Station
Location: Corvallis, OR
Elevation: 348 ft
Nearby Weather Stations

Elev 348 ft 44.60 °N, 123.26 °W | Updated 11 minutes ago

Clear
Clear
42.4 °F
Feels Like 42 °F
N
1.6
Wind Variable Wind from West
Gusts 3.1 mph

Today
High -- | Low -- °F
--% Chance of Precip.
Yesterday
High -- | Low -- °F
Precip. -- in
7:34 AM 5:19 PM
Waxing Gibbous, 81% visible
Pressure 30.27 in
Visibility 1.5 miles
Clouds Clear
Windchill 42 °F
Dew Point 42 °F
Humidity 99%
Rainfall 0.00 in
Snow Depth Not available.
UV 0 out of 12
Pollen 3.40 out of 12
Air Quality Not available.
Flu Activity Not available.
METAR KCVO 300915Z AUTO 00000KT 1 1/2SM CLR 03/01 A3027 RMK AO1

More Conditions Fewer Conditions

Pressure 30.27 in
Visibility 1.5 miles
Clouds Clear
Windchill 42 °F
Dew Point 42 °F
Humidity 99%
Rainfall 0.00 in
Snow Depth Not available.
UV 0 out of 12
Pollen 3.40 out of 12
Air Quality Not available.
Flu Activity Not available.
METAR KCVO 300915Z AUTO 00000KT 1 1/2SM CLR 03/01 A3027 RMK AO1

More Conditions Fewer Conditions

10-Day Weather Forecast

Almanac

Astronomy

Jan. 30, 2015 Rise Set
Actual Time
Civil Twilight
Nautical Twilight
Astronomical Twilight
Moon
Length of Visible Light
Length of Day
Tomorrow will be .
, % of the Moon is Illuminated

Today's Extremes

State Highs State Lows

Community

WunderPhotos

Upload Photos

1,791,737 photos uploaded!

WunderBlogs® & News

Nearby

Air Quality

  Air Quality AQ Index Pollutant
Not available.

Snow Depth

Station Depth Elevation

Earthquake Activity

City Distance Mag. Time & Date
Minimum magnitude displayed is 2.5.

Coastal Water Temperatures

Place Temperature

Nearby Weather Stations